createdAt,value
2023-05-01T00:00:06.013Z,73.89
2023-05-01T00:01:10.250Z,74.23
2023-05-01T00:02:18.501Z,73.84
2023-05-01T00:03:22.337Z,73.96
2023-05-01T00:04:27.723Z,73.97
2023-05-01T00:05:33.147Z,74.61
2023-05-01T00:06:36.619Z,73.56
2023-05-01T00:07:39.924Z,73.47
2023-05-01T00:08:42.383Z,73.27
2023-05-01T00:09:47.454Z,73.00
2023-05-01T00:10:51.093Z,73.53
2023-05-01T00:11:57.558Z,73.46
2023-05-01T00:13:00.789Z,73.98
2023-05-01T00:14:05.479Z,74.54
2023-05-01T00:15:10.829Z,73.79
2023-05-01T00:16:13.783Z,73.43
2023-05-01T00:17:17.224Z,74.21
2023-05-01T00:18:19.474Z,75.10
2023-05-01T00:19:22.984Z,75.37
2023-05-01T00:20:27.632Z,75.28
2023-05-01T00:21:30.824Z,74.73
2023-05-01T00:22:34.752Z,74.82
2023-05-01T00:23:37.520Z,74.64
2023-05-01T00:24:42.279Z,75.07
2023-05-01T00:25:45.072Z,74.53
2023-05-01T00:26:47.512Z,74.48
2023-05-01T00:27:52.256Z,74.93
2023-05-01T00:28:55.456Z,74.70
2023-05-01T00:29:58.967Z,74.62
2023-05-01T00:31:02.686Z,74.90
2023-05-01T00:32:06.423Z,74.78
2023-05-01T00:33:09.637Z,74.91
2023-05-01T00:34:14.769Z,75.65
2023-05-01T00:35:18.064Z,75.66
2023-05-01T00:36:21.880Z,75.70
2023-05-01T00:37:29.945Z,75.77
2023-05-01T00:38:37.203Z,75.83
2023-05-01T00:39:39.918Z,75.97
2023-05-01T00:40:46.437Z,76.34
2023-05-01T00:41:49.631Z,76.69
2023-05-01T00:42:52.825Z,77.93
2023-05-01T00:43:56.151Z,78.24
2023-05-01T00:44:59.634Z,78.24
2023-05-01T00:46:03.172Z,77.85
2023-05-01T00:47:07.380Z,78.44
2023-05-01T00:48:11.474Z,78.87
2023-05-01T00:49:15.768Z,79.17
2023-05-01T00:50:20.404Z,79.43
2023-05-01T00:51:24.433Z,79.66
2023-05-01T00:52:28.452Z,79.49
2023-05-01T00:53:31.739Z,79.90
2023-05-01T00:54:35.253Z,79.90
2023-05-01T00:55:40.945Z,80.61
2023-05-01T00:56:46.965Z,80.67
2023-05-01T00:57:51.112Z,80.88
2023-05-01T00:58:54.727Z,80.92
2023-05-01T00:59:58.379Z,80.92
2023-05-01T01:01:02.788Z,81.15
2023-05-01T01:02:06.150Z,80.93
2023-05-01T01:03:11.680Z,81.24
2023-05-01T01:04:16.936Z,81.46
2023-05-01T01:05:21.822Z,81.64
2023-05-01T01:06:31.922Z,81.63
2023-05-01T01:07:39.668Z,81.78
2023-05-01T01:08:49.088Z,82.05
2023-05-01T01:09:58.017Z,82.11
2023-05-01T01:11:09.603Z,81.99
2023-05-01T01:12:31.008Z,81.99
2023-05-01T01:13:37.184Z,82.36
2023-05-01T01:14:43.570Z,82.75
2023-05-01T01:15:48.577Z,82.99
2023-05-01T01:17:00.014Z,82.62
2023-05-01T01:18:07.451Z,82.43
2023-05-01T01:19:15.621Z,82.57
2023-05-01T01:20:20.892Z,83.47
2023-05-01T01:21:26.380Z,83.84
2023-05-01T01:22:33.029Z,84.09
2023-05-01T01:23:44.667Z,84.15
2023-05-01T01:24:51.918Z,84.03
2023-05-01T01:26:00.761Z,84.65
2023-05-01T01:27:14.724Z,85.64
2023-05-01T01:28:32.644Z,85.61
2023-05-01T01:29:56.420Z,85.60
2023-05-01T01:31:19.258Z,86.42
2023-05-01T01:32:43.061Z,86.17
2023-05-01T01:34:04.989Z,86.78
2023-05-01T01:35:11.526Z,86.54
2023-05-01T01:36:16.908Z,87.09
2023-05-01T01:37:25.036Z,87.37
2023-05-01T01:38:31.540Z,87.13
2023-05-01T01:39:45.909Z,87.51
2023-05-01T01:40:59.339Z,89.56
2023-05-01T01:42:05.557Z,91.04
2023-05-01T01:43:10.641Z,91.34
2023-05-01T01:44:16.011Z,91.52
2023-05-01T01:45:25.699Z,90.64
2023-05-01T01:46:30.261Z,88.60
2023-05-01T01:47:34.957Z,85.91
2023-05-01T01:48:39.161Z,85.25
2023-05-01T01:49:45.680Z,83.09
2023-05-01T01:50:49.072Z,82.05
2023-05-01T01:51:53.292Z,81.41
2023-05-01T01:52:59.152Z,80.62
2023-05-01T01:54:03.657Z,80.00
2023-05-01T01:55:12.787Z,79.50
2023-05-01T01:56:21.340Z,78.75
2023-05-01T01:57:27.217Z,78.66
2023-05-01T01:58:30.720Z,78.62
2023-05-01T01:59:35.530Z,79.10
2023-05-01T02:00:42.532Z,77.86
2023-05-01T02:01:46.931Z,77.26
2023-05-01T02:02:50.421Z,77.27
2023-05-01T02:03:54.485Z,77.31
2023-05-01T02:05:02.601Z,76.77
2023-05-01T02:06:08.029Z,76.74
2023-05-01T02:07:12.208Z,76.52
2023-05-01T02:08:17.842Z,76.98
2023-05-01T02:09:22.260Z,76.90
2023-05-01T02:10:28.457Z,77.23
2023-05-01T02:11:32.521Z,77.67
2023-05-01T02:12:37.548Z,77.70
2023-05-01T02:13:41.618Z,77.39
2023-05-01T02:14:45.532Z,77.92
2023-05-01T02:15:49.282Z,78.12
2023-05-01T02:16:54.718Z,78.43
2023-05-01T02:17:58.702Z,78.99
2023-05-01T02:19:05.084Z,79.18
2023-05-01T02:20:11.413Z,78.58
2023-05-01T02:21:16.302Z,79.33
2023-05-01T02:22:21.692Z,79.39
2023-05-01T02:23:29.066Z,80.42
2023-05-01T02:24:34.266Z,80.33
2023-05-01T02:25:41.146Z,80.36
2023-05-01T02:26:45.186Z,80.78
2023-05-01T02:27:51.420Z,81.39
2023-05-01T02:28:56.330Z,81.82
2023-05-01T02:29:59.785Z,82.94
2023-05-01T02:31:03.812Z,83.70
2023-05-01T02:32:07.316Z,84.40
2023-05-01T02:33:10.449Z,84.96
2023-05-01T02:34:16.712Z,84.95
2023-05-01T02:35:19.858Z,85.49
2023-05-01T02:36:23.322Z,85.99
2023-05-01T02:37:26.937Z,86.54
2023-05-01T02:38:30.958Z,86.27
2023-05-01T02:39:35.293Z,86.31
2023-05-01T02:40:38.510Z,85.85
2023-05-01T02:41:42.299Z,86.17
2023-05-01T02:42:45.840Z,87.12
2023-05-01T02:43:52.029Z,86.74
2023-05-01T02:44:58.880Z,87.19
2023-05-01T02:46:06.462Z,87.72
2023-05-01T02:47:12.849Z,87.51
2023-05-01T02:48:18.075Z,86.95
2023-05-01T02:49:21.353Z,86.86
2023-05-01T02:50:25.586Z,87.04
2023-05-01T02:51:29.930Z,86.93
2023-05-01T02:52:33.661Z,87.45
2023-05-01T02:53:42.982Z,88.54
2023-05-01T02:54:49.720Z,88.80
2023-05-01T02:55:53.463Z,88.92
2023-05-01T02:57:02.104Z,90.55
2023-05-01T02:58:08.818Z,90.55
2023-05-01T02:59:12.386Z,92.08
2023-05-01T03:00:15.212Z,92.29
2023-05-01T03:01:20.352Z,93.28
2023-05-01T03:02:23.896Z,94.15
2023-05-01T03:03:28.653Z,94.74
2023-05-01T03:04:32.414Z,94.70
2023-05-01T03:05:39.303Z,95.06
2023-05-01T03:06:42.882Z,95.33
2023-05-01T03:07:46.907Z,94.75
2023-05-01T03:08:50.567Z,95.71
2023-05-01T03:09:54.112Z,95.73
2023-05-01T03:10:57.922Z,96.26
2023-05-01T03:12:02.674Z,96.48
2023-05-01T03:13:06.049Z,96.06
2023-05-01T03:14:09.554Z,96.42
2023-05-01T03:15:13.703Z,96.44
2023-05-01T03:16:16.997Z,96.28
2023-05-01T03:17:22.800Z,96.84
2023-05-01T03:18:26.846Z,97.71
2023-05-01T03:19:31.251Z,97.89
2023-05-01T03:20:34.877Z,96.52
2023-05-01T03:21:38.814Z,95.89
2023-05-01T03:22:42.708Z,95.67
2023-05-01T03:23:45.803Z,96.16
2023-05-01T03:24:49.180Z,96.98
2023-05-01T03:25:54.578Z,96.26
2023-05-01T03:26:59.775Z,96.33
2023-05-01T03:28:04.932Z,96.63
2023-05-01T03:29:11.828Z,96.84
2023-05-01T03:30:15.272Z,97.15
2023-05-01T03:31:18.683Z,97.63
2023-05-01T03:32:23.224Z,97.70
2023-05-01T03:33:26.214Z,98.65
2023-05-01T03:34:29.193Z,99.30
2023-05-01T03:35:33.657Z,99.12
2023-05-01T03:36:37.803Z,98.52
2023-05-01T03:37:41.489Z,97.43
2023-05-01T03:38:46.815Z,95.55
2023-05-01T03:40:00.460Z,92.62
2023-05-01T03:41:22.482Z,90.83
2023-05-01T03:42:42.397Z,86.88
2023-05-01T03:43:47.682Z,86.87
2023-05-01T03:44:53.695Z,86.43
2023-05-01T03:45:57.874Z,86.49
2023-05-01T03:47:01.428Z,85.45
2023-05-01T03:48:05.492Z,83.87
2023-05-01T03:49:09.807Z,85.21
2023-05-01T03:50:15.505Z,86.47
2023-05-01T03:51:19.849Z,83.93
2023-05-01T03:52:25.009Z,81.72
2023-05-01T03:53:28.097Z,81.17
2023-05-01T03:54:32.236Z,79.00
2023-05-01T03:55:37.730Z,79.10
2023-05-01T03:56:41.554Z,79.53
2023-05-01T03:57:47.526Z,82.18
2023-05-01T03:58:54.918Z,83.88
2023-05-01T03:59:58.497Z,85.19
2023-05-01T04:01:02.890Z,84.81
2023-05-01T04:02:06.744Z,86.22
2023-05-01T04:03:11.491Z,87.58
2023-05-01T04:04:16.431Z,89.59
2023-05-01T04:05:23.990Z,90.22
2023-05-01T04:06:29.136Z,89.88
2023-05-01T04:07:33.909Z,90.15
2023-05-01T04:08:38.057Z,89.22
2023-05-01T04:09:43.140Z,88.37
2023-05-01T04:10:49.689Z,89.08
2023-05-01T04:11:53.300Z,90.56
2023-05-01T04:12:56.790Z,90.93
2023-05-01T04:14:00.206Z,90.15
2023-05-01T04:15:04.324Z,88.74
2023-05-01T04:16:08.723Z,89.80
2023-05-01T04:17:12.155Z,89.50
2023-05-01T04:18:16.518Z,88.88
2023-05-01T04:19:20.334Z,88.79
2023-05-01T04:20:25.386Z,88.00
2023-05-01T04:21:28.898Z,87.41
2023-05-01T04:22:32.249Z,86.07
2023-05-01T04:23:34.661Z,86.26
2023-05-01T04:24:38.685Z,85.43
2023-05-01T04:25:41.157Z,83.52
2023-05-01T04:26:46.552Z,82.07
2023-05-01T04:27:51.282Z,79.77
2023-05-01T04:28:54.364Z,75.19
2023-05-01T04:29:58.732Z,72.42
2023-05-01T04:31:02.882Z,71.26
2023-05-01T04:32:05.723Z,71.67
2023-05-01T04:33:10.125Z,71.41
2023-05-01T04:34:13.178Z,72.43
2023-05-01T04:35:16.238Z,73.44
2023-05-01T04:36:19.220Z,71.79
2023-05-01T04:37:23.769Z,69.90
2023-05-01T04:38:27.583Z,68.53
2023-05-01T04:39:31.473Z,67.12
2023-05-01T04:40:39.498Z,67.92
2023-05-01T04:41:43.108Z,68.34
2023-05-01T04:42:49.564Z,67.98
2023-05-01T04:43:53.980Z,66.75
2023-05-01T04:44:58.646Z,61.83
2023-05-01T04:46:03.098Z,57.96
2023-05-01T04:47:05.871Z,55.84
2023-05-01T04:48:12.223Z,54.56
2023-05-01T04:49:15.368Z,53.56
2023-05-01T04:50:19.485Z,55.30
2023-05-01T04:51:23.560Z,58.63
2023-05-01T04:52:27.565Z,59.49
2023-05-01T04:53:35.895Z,55.80
2023-05-01T04:54:38.641Z,52.16
2023-05-01T04:55:41.307Z,49.92
2023-05-01T04:56:46.490Z,47.64
2023-05-01T04:57:50.102Z,47.65
2023-05-01T04:58:53.388Z,46.25
2023-05-01T05:00:00.940Z,44.95
2023-05-01T05:02:12.490Z,43.84
2023-05-01T05:03:17.845Z,42.69
2023-05-01T05:04:21.586Z,40.78
2023-05-01T05:05:26.037Z,40.43
2023-05-01T05:06:29.803Z,40.43
2023-05-01T05:07:36.457Z,39.17
2023-05-01T05:08:59.988Z,38.51
2023-05-01T05:10:04.223Z,38.06
2023-05-01T05:11:07.918Z,37.56
2023-05-01T05:12:24.244Z,37.88
2023-05-01T05:13:28.026Z,37.42
2023-05-01T05:14:34.083Z,38.63
2023-05-01T05:15:37.431Z,36.88
2023-05-01T05:16:42.811Z,36.33
2023-05-01T05:17:48.056Z,36.51
2023-05-01T05:18:51.571Z,37.00
2023-05-01T05:19:55.434Z,35.85
2023-05-01T05:20:58.121Z,34.77
2023-05-01T05:22:05.784Z,34.59
2023-05-01T05:23:10.986Z,34.45
2023-05-01T05:24:14.911Z,34.43
2023-05-01T05:25:19.358Z,33.12
2023-05-01T05:26:25.472Z,32.37
2023-05-01T05:27:30.454Z,32.07
2023-05-01T05:28:33.757Z,33.18
2023-05-01T05:29:37.227Z,31.62
2023-05-01T05:30:44.388Z,30.69
2023-05-01T05:31:49.778Z,31.06
2023-05-01T05:32:53.899Z,31.19
2023-05-01T05:33:58.378Z,31.71
2023-05-01T05:35:01.743Z,33.60
2023-05-01T05:36:05.051Z,33.44
2023-05-01T05:37:10.547Z,34.04
2023-05-01T05:38:16.337Z,34.14
2023-05-01T05:39:24.356Z,34.09
2023-05-01T05:40:27.671Z,35.14
2023-05-01T05:41:32.102Z,35.26
2023-05-01T05:42:39.761Z,35.79
2023-05-01T05:43:43.994Z,35.38
2023-05-01T05:44:47.290Z,35.88
2023-05-01T05:45:50.825Z,35.38
2023-05-01T05:46:55.792Z,35.73
2023-05-01T05:48:01.212Z,36.12
2023-05-01T05:49:05.162Z,36.36
2023-05-01T05:50:10.355Z,36.75
2023-05-01T05:51:13.771Z,36.87
2023-05-01T05:52:17.685Z,35.59
2023-05-01T05:53:24.273Z,35.25
2023-05-01T05:54:26.144Z,35.04
2023-05-01T05:55:31.961Z,35.09
2023-05-01T05:56:40.196Z,34.63
2023-05-01T05:57:44.451Z,33.67
2023-05-01T05:58:53.536Z,33.30
2023-05-01T05:59:58.145Z,33.90
2023-05-01T06:01:01.068Z,35.07
2023-05-01T06:02:05.491Z,36.17
2023-05-01T06:03:11.493Z,35.52
2023-05-01T06:04:18.135Z,35.84
2023-05-01T06:05:21.703Z,37.32
2023-05-01T06:06:25.245Z,37.02
2023-05-01T06:07:29.632Z,36.98
2023-05-01T06:08:32.092Z,36.18
2023-05-01T06:09:36.214Z,35.37
2023-05-01T06:10:43.716Z,34.66
2023-05-01T06:11:47.297Z,35.76
2023-05-01T06:13:07.023Z,35.96
2023-05-01T06:14:00.503Z,35.51
2023-05-01T06:15:04.111Z,34.90
2023-05-01T06:16:13.340Z,34.62
2023-05-01T06:17:16.843Z,34.71
2023-05-01T06:18:21.258Z,33.82
2023-05-01T06:19:28.162Z,32.28
2023-05-01T06:20:33.207Z,32.05
2023-05-01T06:21:36.910Z,32.04
2023-05-01T06:22:42.133Z,30.92
2023-05-01T06:23:47.228Z,30.65
2023-05-01T06:24:58.648Z,30.32
2023-05-01T06:26:02.955Z,30.43
2023-05-01T06:27:06.986Z,29.08
2023-05-01T06:28:10.617Z,28.09
2023-05-01T06:29:15.021Z,28.31
2023-05-01T06:30:20.418Z,27.93
2023-05-01T06:31:22.937Z,27.22
2023-05-01T06:32:30.664Z,27.62
2023-05-01T06:33:33.962Z,26.94
2023-05-01T06:34:39.346Z,27.45
2023-05-01T06:35:41.702Z,27.41
2023-05-01T06:36:45.528Z,26.88
2023-05-01T06:37:47.888Z,26.35
2023-05-01T06:38:51.179Z,25.80
2023-05-01T06:39:55.031Z,26.19
2023-05-01T06:40:58.390Z,25.23
2023-05-01T06:42:03.872Z,24.52
2023-05-01T06:43:10.023Z,23.83
2023-05-01T06:44:13.501Z,23.49
2023-05-01T06:45:16.064Z,23.85
2023-05-01T06:46:22.222Z,23.29
2023-05-01T06:47:25.770Z,23.08
2023-05-01T06:48:29.079Z,22.45
2023-05-01T06:49:32.904Z,22.81
2023-05-01T06:50:38.038Z,23.61
2023-05-01T06:51:41.266Z,23.07
2023-05-01T06:52:45.713Z,23.23
2023-05-01T06:53:48.284Z,23.36
2023-05-01T06:54:51.788Z,22.60
2023-05-01T06:55:54.455Z,22.53
2023-05-01T06:56:57.211Z,22.23
2023-05-01T06:58:02.631Z,23.04
2023-05-01T06:59:05.690Z,23.02
2023-05-01T07:00:10.549Z,22.63
2023-05-01T07:01:13.874Z,21.96
2023-05-01T07:02:18.078Z,22.26
2023-05-01T07:03:21.743Z,22.44
2023-05-01T07:04:26.250Z,21.63
2023-05-01T07:05:30.596Z,21.56
2023-05-01T07:06:34.253Z,21.46
2023-05-01T07:07:38.996Z,22.70
2023-05-01T07:08:43.506Z,23.02
2023-05-01T07:09:47.131Z,23.06
2023-05-01T07:10:50.845Z,22.70
2023-05-01T07:11:54.135Z,22.04
2023-05-01T07:12:58.306Z,21.70
2023-05-01T07:14:01.533Z,21.56
2023-05-01T07:15:11.769Z,21.19
2023-05-01T07:16:15.827Z,21.32
2023-05-01T07:17:18.350Z,20.81
2023-05-01T07:18:21.647Z,20.63
2023-05-01T07:19:24.808Z,20.75
2023-05-01T07:20:28.441Z,20.17
2023-05-01T07:21:32.830Z,19.32
2023-05-01T07:22:35.962Z,19.24
2023-05-01T07:23:40.559Z,18.97
2023-05-01T07:24:45.073Z,18.87
2023-05-01T07:25:48.476Z,18.25
2023-05-01T07:26:51.346Z,18.93
2023-05-01T07:27:55.476Z,20.06
2023-05-01T07:28:58.036Z,20.08
2023-05-01T07:30:03.032Z,20.86
2023-05-01T07:31:07.690Z,20.14
2023-05-01T07:33:16.338Z,21.47
2023-05-01T07:34:19.786Z,20.93
2023-05-01T07:35:22.216Z,20.81
2023-05-01T07:36:25.391Z,20.66
2023-05-01T07:37:30.763Z,20.72
2023-05-01T07:38:33.872Z,20.52
2023-05-01T07:39:38.933Z,20.78
2023-05-01T07:40:43.388Z,20.31
2023-05-01T07:41:46.500Z,20.91
2023-05-01T07:42:53.827Z,20.92
2023-05-01T07:43:58.500Z,20.98
2023-05-01T07:45:02.946Z,21.67
2023-05-01T07:46:07.692Z,21.28
2023-05-01T07:47:11.853Z,21.15
2023-05-01T07:48:15.518Z,21.67
2023-05-01T07:49:18.211Z,21.34
2023-05-01T07:50:23.073Z,21.69
2023-05-01T07:51:27.554Z,21.20
2023-05-01T07:52:31.124Z,21.16
2023-05-01T07:53:35.253Z,20.79
2023-05-01T07:54:38.576Z,20.73
2023-05-01T07:55:43.736Z,20.67
2023-05-01T07:56:47.097Z,21.03
2023-05-01T07:57:52.126Z,21.37
2023-05-01T07:58:55.431Z,21.44
2023-05-01T08:00:00.098Z,22.25
2023-05-01T08:01:04.962Z,22.10
2023-05-01T08:02:08.581Z,22.85
2023-05-01T08:03:14.673Z,23.07
2023-05-01T08:04:19.347Z,22.97
2023-05-01T08:05:22.622Z,23.41
2023-05-01T08:06:26.354Z,23.89
2023-05-01T08:07:28.661Z,23.76
2023-05-01T08:08:32.891Z,23.41
2023-05-01T08:09:36.181Z,23.58
2023-05-01T08:10:39.072Z,23.92
2023-05-01T08:11:42.254Z,23.71
2023-05-01T08:12:47.444Z,24.57
2023-05-01T08:13:51.007Z,25.31
2023-05-01T08:14:54.452Z,26.19
2023-05-01T08:15:59.875Z,25.98
2023-05-01T08:17:02.309Z,25.74
2023-05-01T08:18:08.542Z,24.80
2023-05-01T08:19:12.128Z,25.84
2023-05-01T08:20:15.429Z,25.81
2023-05-01T08:21:19.347Z,25.33
2023-05-01T08:22:25.259Z,25.68
2023-05-01T08:23:29.447Z,26.13
2023-05-01T08:24:32.614Z,25.50
2023-05-01T08:25:35.969Z,24.09
2023-05-01T08:26:40.363Z,23.97
2023-05-01T08:27:42.669Z,24.75
2023-05-01T08:28:44.855Z,25.28
2023-05-01T08:29:48.257Z,25.72
2023-05-01T08:30:51.000Z,24.65
2023-05-01T08:31:54.003Z,24.44
2023-05-01T08:32:56.272Z,24.69
2023-05-01T08:34:02.976Z,24.90
2023-05-01T08:35:07.871Z,25.12
2023-05-01T08:36:14.567Z,25.52
2023-05-01T08:37:19.442Z,25.28
2023-05-01T08:38:23.376Z,25.51
2023-05-01T08:39:26.142Z,24.13
2023-05-01T08:40:33.498Z,25.21
2023-05-01T08:41:38.374Z,24.38
2023-05-01T08:42:42.095Z,23.96
2023-05-01T08:43:44.759Z,23.30
2023-05-01T08:44:48.862Z,23.85
2023-05-01T08:45:55.762Z,23.77
2023-05-01T08:47:18.549Z,24.50
2023-05-01T08:48:23.202Z,23.11
2023-05-01T08:49:28.503Z,22.16
2023-05-01T08:50:31.774Z,22.20
2023-05-01T08:51:38.071Z,22.43
2023-05-01T08:52:42.873Z,23.21
2023-05-01T08:53:47.527Z,24.37
2023-05-01T08:54:52.284Z,24.55
2023-05-01T08:55:56.101Z,23.86
2023-05-01T08:57:06.079Z,23.62
2023-05-01T08:58:10.188Z,23.52
2023-05-01T08:59:16.079Z,23.91
2023-05-01T09:00:21.914Z,24.74
2023-05-01T09:01:25.623Z,24.40
2023-05-01T09:02:30.309Z,24.17
2023-05-01T09:03:34.110Z,24.31
2023-05-01T09:04:40.974Z,24.43
2023-05-01T09:05:45.506Z,24.28
2023-05-01T09:06:48.644Z,24.13
2023-05-01T09:07:52.301Z,23.94
2023-05-01T09:08:55.697Z,24.42
2023-05-01T09:09:59.006Z,24.53
2023-05-01T09:11:03.932Z,23.91
2023-05-01T09:12:11.869Z,24.77
2023-05-01T09:13:15.277Z,24.59
2023-05-01T09:14:18.497Z,23.56
2023-05-01T09:15:22.189Z,23.80
2023-05-01T09:16:25.590Z,24.91
2023-05-01T09:17:32.720Z,25.16
2023-05-01T09:18:36.470Z,24.59
2023-05-01T09:19:42.579Z,24.73
2023-05-01T09:20:46.054Z,26.07
2023-05-01T09:21:52.478Z,25.29
2023-05-01T09:22:57.278Z,25.94
2023-05-01T09:24:00.476Z,25.85
2023-05-01T09:25:03.951Z,26.44
2023-05-01T09:26:10.585Z,25.53
2023-05-01T09:27:15.112Z,26.02
2023-05-01T09:28:18.551Z,25.60
2023-05-01T09:29:32.905Z,26.13
2023-05-01T09:30:37.951Z,25.78
2023-05-01T09:31:41.321Z,25.60
2023-05-01T09:32:45.941Z,24.85
2023-05-01T09:33:51.422Z,25.45
2023-05-01T09:34:55.548Z,25.26
2023-05-01T09:35:59.286Z,25.18
2023-05-01T09:37:01.923Z,25.28
2023-05-01T09:38:08.138Z,25.58
2023-05-01T09:39:16.359Z,25.62
2023-05-01T09:40:19.031Z,26.01
2023-05-01T09:41:23.681Z,26.28
2023-05-01T09:42:27.040Z,25.53
2023-05-01T09:43:31.108Z,24.72
2023-05-01T09:44:36.275Z,25.36
2023-05-01T09:45:40.813Z,25.73
2023-05-01T09:46:44.659Z,24.42
2023-05-01T09:47:48.495Z,24.80
2023-05-01T09:48:55.652Z,25.06
2023-05-01T09:49:59.948Z,25.37
2023-05-01T09:52:16.975Z,25.54
2023-05-01T09:53:20.645Z,25.88
2023-05-01T09:54:23.794Z,25.67
2023-05-01T09:55:27.156Z,25.85
2023-05-01T09:56:32.099Z,26.37
2023-05-01T09:57:36.696Z,26.52
2023-05-01T09:58:41.696Z,26.33
2023-05-01T09:59:48.646Z,26.67
2023-05-01T10:00:53.339Z,25.64
2023-05-01T10:01:57.622Z,25.41
2023-05-01T10:03:06.580Z,26.78
2023-05-01T10:04:13.239Z,26.00
2023-05-01T10:05:17.884Z,26.08
2023-05-01T10:06:29.138Z,26.37
2023-05-01T10:07:31.773Z,27.03
2023-05-01T10:09:50.481Z,26.76
2023-05-01T10:11:00.602Z,27.47
2023-05-01T10:12:04.506Z,27.11
2023-05-01T10:13:15.087Z,25.23
2023-05-01T10:14:18.316Z,25.73
2023-05-01T10:15:26.247Z,26.37
2023-05-01T10:16:28.705Z,26.05
2023-05-01T10:17:32.785Z,26.38
2023-05-01T10:18:35.652Z,26.60
2023-05-01T10:19:39.154Z,27.01
2023-05-01T10:20:41.704Z,27.30
2023-05-01T10:21:47.941Z,27.31
2023-05-01T10:22:51.990Z,27.42
2023-05-01T10:23:56.097Z,28.17
2023-05-01T10:24:59.422Z,27.41
2023-05-01T10:26:05.190Z,27.64
2023-05-01T10:27:10.706Z,27.72
2023-05-01T10:28:14.504Z,28.44
2023-05-01T10:29:19.502Z,27.74
2023-05-01T10:30:23.397Z,26.83
2023-05-01T10:31:30.034Z,27.46
2023-05-01T10:32:34.283Z,27.19
2023-05-01T10:33:41.011Z,26.72
2023-05-01T10:34:49.563Z,28.38
2023-05-01T10:35:57.742Z,27.39
2023-05-01T10:37:04.709Z,27.24
2023-05-01T10:38:10.396Z,27.67
2023-05-01T10:39:26.120Z,28.14
2023-05-01T10:40:40.087Z,27.42
2023-05-01T10:41:59.861Z,27.40
2023-05-01T10:43:13.392Z,26.75
2023-05-01T10:44:22.715Z,27.92
2023-05-01T10:45:31.276Z,27.47
2023-05-01T10:46:36.186Z,28.16
2023-05-01T10:47:43.534Z,27.00
2023-05-01T10:48:47.733Z,27.43
2023-05-01T10:50:04.947Z,27.89
2023-05-01T10:51:11.884Z,27.95
2023-05-01T10:52:15.480Z,27.14
2023-05-01T10:53:20.698Z,26.49
2023-05-01T10:54:28.153Z,26.78
2023-05-01T10:55:38.259Z,26.56
2023-05-01T10:56:42.451Z,26.90
2023-05-01T10:57:46.598Z,27.70
2023-05-01T10:58:55.210Z,27.22
2023-05-01T11:00:03.412Z,27.12
2023-05-01T11:01:25.085Z,27.34
2023-05-01T11:02:31.514Z,27.59
2023-05-01T11:03:35.129Z,27.90
2023-05-01T11:04:51.287Z,27.25
2023-05-01T11:06:05.793Z,26.58
2023-05-01T11:07:16.152Z,26.32
2023-05-01T11:08:33.472Z,27.59
2023-05-01T11:09:40.360Z,26.53
2023-05-01T11:10:43.674Z,26.73
2023-05-01T11:11:47.924Z,25.58
2023-05-01T11:12:51.185Z,25.91
2023-05-01T11:14:01.521Z,25.94
2023-05-01T11:15:05.795Z,26.56
2023-05-01T11:16:26.889Z,26.67
2023-05-01T11:17:44.555Z,27.49
2023-05-01T11:18:48.762Z,26.58
2023-05-01T11:19:52.028Z,26.44
2023-05-01T11:20:58.654Z,26.53
2023-05-01T11:22:06.665Z,26.67
2023-05-01T11:23:12.184Z,27.42
2023-05-01T11:24:15.562Z,26.59
2023-05-01T11:25:31.792Z,26.11
2023-05-01T11:26:37.200Z,26.70
2023-05-01T11:27:40.808Z,27.74
2023-05-01T11:28:43.895Z,27.26
2023-05-01T11:29:47.304Z,27.59
2023-05-01T11:30:50.800Z,27.59
2023-05-01T11:31:54.310Z,27.09
2023-05-01T11:32:57.975Z,26.37
2023-05-01T11:34:03.892Z,26.33
2023-05-01T11:35:08.485Z,27.10
2023-05-01T11:36:11.874Z,26.62
2023-05-01T11:37:14.443Z,27.59
2023-05-01T11:38:22.008Z,28.02
2023-05-01T11:39:25.237Z,27.78
2023-05-01T11:40:30.669Z,27.17
2023-05-01T11:41:33.992Z,27.18
2023-05-01T11:42:37.157Z,27.07
2023-05-01T11:43:58.249Z,26.68
2023-05-01T11:45:11.694Z,26.07
2023-05-01T11:46:15.446Z,27.14
2023-05-01T11:47:18.991Z,27.46
2023-05-01T11:48:23.125Z,26.97
2023-05-01T11:49:29.474Z,26.97
2023-05-01T11:50:33.685Z,27.06
2023-05-01T11:51:36.722Z,27.13
2023-05-01T11:52:48.352Z,28.02
2023-05-01T11:54:04.986Z,26.54
2023-05-01T11:55:08.076Z,27.11
2023-05-01T11:56:26.904Z,27.65
2023-05-01T11:57:29.096Z,27.02
2023-05-01T11:58:33.867Z,25.72
2023-05-01T11:59:37.158Z,25.94
2023-05-01T12:00:41.727Z,25.96
2023-05-01T12:01:45.982Z,25.79
2023-05-01T12:04:16.450Z,25.76
2023-05-01T12:05:20.808Z,25.79
2023-05-01T12:06:27.138Z,26.01
2023-05-01T12:07:32.677Z,25.79
2023-05-01T12:08:35.370Z,25.96
2023-05-01T12:09:42.303Z,26.66
2023-05-01T12:10:46.859Z,25.70
2023-05-01T12:11:53.130Z,25.66
2023-05-01T12:12:57.004Z,26.91
2023-05-01T12:14:00.669Z,26.68
2023-05-01T12:15:04.735Z,27.41
2023-05-01T12:16:08.458Z,27.53
2023-05-01T12:17:12.679Z,26.26
2023-05-01T12:18:18.794Z,26.80
2023-05-01T12:19:23.936Z,27.11
2023-05-01T12:20:38.472Z,26.21
2023-05-01T12:21:43.400Z,26.17
2023-05-01T12:22:51.003Z,25.81
2023-05-01T12:23:56.183Z,26.67
2023-05-01T12:25:01.356Z,27.81
2023-05-01T12:26:06.521Z,26.91
2023-05-01T12:27:09.729Z,27.51
2023-05-01T12:28:20.576Z,27.12
2023-05-01T12:29:23.940Z,27.16
2023-05-01T12:30:28.626Z,26.54
2023-05-01T12:31:32.356Z,26.71
2023-05-01T12:32:38.277Z,26.87
2023-05-01T12:33:44.018Z,26.90
2023-05-01T12:34:48.832Z,27.37
2023-05-01T12:35:51.546Z,27.79
2023-05-01T12:36:54.533Z,26.94
2023-05-01T12:37:57.514Z,26.81
2023-05-01T12:39:10.000Z,27.30
2023-05-01T12:40:14.160Z,25.66
2023-05-01T12:41:17.639Z,25.83
2023-05-01T12:42:20.627Z,25.61
2023-05-01T12:43:35.550Z,25.60
2023-05-01T12:44:39.959Z,25.69
2023-05-01T12:45:43.061Z,26.04
2023-05-01T12:46:49.069Z,25.88
2023-05-01T12:47:52.996Z,25.60
2023-05-01T12:48:56.274Z,25.77
2023-05-01T12:50:06.376Z,25.88
2023-05-01T12:51:09.744Z,26.08
2023-05-01T12:52:13.161Z,26.45
2023-05-01T12:53:16.492Z,26.20
2023-05-01T12:55:33.387Z,26.36
2023-05-01T12:56:37.614Z,26.50
2023-05-01T12:57:51.697Z,26.14
2023-05-01T12:58:56.789Z,26.41
2023-05-01T13:00:04.933Z,26.22
2023-05-01T13:01:08.312Z,27.48
2023-05-01T13:02:13.462Z,27.08
2023-05-01T13:03:19.189Z,26.34
2023-05-01T13:04:23.289Z,25.48
2023-05-01T13:05:26.867Z,26.62
2023-05-01T13:06:36.109Z,26.67
2023-05-01T13:07:40.976Z,25.78
2023-05-01T13:08:44.161Z,25.92
2023-05-01T13:09:53.264Z,25.98
2023-05-01T13:11:05.429Z,27.02
2023-05-01T13:12:10.497Z,26.64
2023-05-01T13:13:13.961Z,26.49
2023-05-01T13:14:18.592Z,26.42
2023-05-01T13:15:25.342Z,27.10
2023-05-01T13:16:28.811Z,27.15
2023-05-01T13:17:33.051Z,27.02
2023-05-01T13:18:45.063Z,27.36
2023-05-01T13:19:54.023Z,27.12
2023-05-01T13:21:09.414Z,26.58
2023-05-01T13:22:15.771Z,26.34
2023-05-01T13:23:18.186Z,26.93
2023-05-01T13:24:25.084Z,25.93
2023-05-01T13:25:31.934Z,25.67
2023-05-01T13:26:36.433Z,26.47
2023-05-01T13:27:39.841Z,26.92
2023-05-01T13:28:46.925Z,26.25
2023-05-01T13:29:57.424Z,26.88
2023-05-01T13:31:00.974Z,26.88
2023-05-01T13:32:08.606Z,26.70
2023-05-01T13:33:12.178Z,26.45
2023-05-01T13:34:17.588Z,26.05
2023-05-01T13:35:25.270Z,27.05
2023-05-01T13:36:30.649Z,27.37
2023-05-01T13:37:36.583Z,28.20
2023-05-01T13:38:46.394Z,28.26
2023-05-01T13:39:49.935Z,27.31
2023-05-01T13:40:53.338Z,27.60
2023-05-01T13:41:56.703Z,27.39
2023-05-01T13:43:00.545Z,27.48
2023-05-01T13:44:05.942Z,27.02
2023-05-01T13:45:13.310Z,27.26
2023-05-01T13:46:17.415Z,27.31
2023-05-01T13:47:25.701Z,27.64
2023-05-01T13:48:30.928Z,28.16
2023-05-01T13:49:34.252Z,28.68
2023-05-01T13:50:42.245Z,27.52
2023-05-01T13:51:47.416Z,27.02
2023-05-01T13:52:49.647Z,27.37
2023-05-01T13:53:54.910Z,27.12
2023-05-01T13:54:58.777Z,26.94
2023-05-01T13:56:06.871Z,27.31
2023-05-01T13:57:11.213Z,27.37
2023-05-01T13:58:15.945Z,27.40
2023-05-01T13:59:20.396Z,28.37
2023-05-01T14:00:25.669Z,26.81
2023-05-01T14:01:28.065Z,27.55
2023-05-01T14:02:32.117Z,27.55
2023-05-01T14:03:41.279Z,26.65
2023-05-01T14:04:44.391Z,26.51
2023-05-01T14:05:47.240Z,26.33
2023-05-01T14:06:52.781Z,26.55
2023-05-01T14:07:57.403Z,27.09
2023-05-01T14:09:02.198Z,27.61